Melville, North Dakota
Current Conditions -  °F | °C
As of 2:55 PM on Thursday 27 Nov 2014 (Local Time) from K46D Reporting Station
Broken Clouds Broken Clouds  
Wind Chill: -17°   Ceiling: 4600
Heat Index:   Visibility: 10mi
Dew Point:   Wind: 18mph
Humidity: 85%   Direction: 160°SSE
Pressure: 30.18"   Gusts: NA
Location:  47.4573°N, 99.0752°W
Report Text: K46D 272055Z AUTO 16016KT 10SM SCT039 BKN046 M16/M18 A3018 RMK AO2
Loading
Personal Weather Stations






























Interactive Weather Map New forecast layout! Learn more

10-Day Weather Forecast

Advertisements
Track Severe Weather on mobile